createdAt,value
2019-03-06T00:02:14.071Z,9.13
2019-03-06T00:04:47.362Z,9.38
2019-03-06T00:07:22.757Z,9.50
2019-03-06T00:09:55.291Z,9.77
2019-03-06T00:12:30.059Z,9.90
2019-03-06T00:15:04.683Z,10.20
2019-03-06T00:17:38.030Z,10.50
2019-03-06T00:20:11.747Z,10.37
2019-03-06T00:22:46.626Z,10.23
2019-03-06T00:25:20.010Z,10.00
2019-03-06T00:27:55.015Z,11.20
2019-03-06T00:30:28.227Z,10.87
2019-03-06T00:33:01.575Z,11.13
2019-03-06T00:35:34.850Z,10.60
2019-03-06T00:38:08.459Z,11.60
2019-03-06T00:40:42.162Z,11.40
2019-03-06T00:43:15.723Z,12.37
2019-03-06T00:45:48.941Z,11.35
2019-03-06T00:48:22.239Z,13.00
2019-03-06T00:50:55.760Z,12.60
2019-03-06T00:53:29.047Z,12.80
2019-03-06T00:56:02.301Z,13.20
2019-03-06T00:58:35.718Z,12.37
2019-03-06T01:01:09.670Z,12.40
2019-03-06T01:03:43.199Z,11.83
2019-03-06T01:06:16.555Z,12.03
2019-03-06T01:08:50.047Z,11.57
2019-03-06T01:11:23.501Z,12.13
2019-03-06T01:13:58.513Z,13.50
2019-03-06T01:16:31.819Z,10.90
2019-03-06T01:19:05.174Z,10.47
2019-03-06T01:21:38.435Z,11.23
2019-03-06T01:24:11.670Z,10.33
2019-03-06T01:26:45.088Z,11.97
2019-03-06T01:29:18.371Z,10.93
2019-03-06T01:31:51.777Z,11.07
2019-03-06T01:34:25.022Z,10.27
2019-03-06T01:36:58.432Z,9.50
2019-03-06T01:39:33.136Z,10.10
2019-03-06T01:42:06.533Z,10.47
2019-03-06T01:44:41.778Z,9.38
2019-03-06T01:47:17.769Z,9.18
2019-03-06T01:49:51.975Z,8.95
2019-03-06T01:52:25.280Z,9.87
2019-03-06T01:54:58.524Z,8.60
2019-03-06T01:57:31.758Z,9.60
2019-03-06T02:00:05.378Z,8.73
2019-03-06T02:02:38.577Z,8.23
2019-03-06T02:05:13.791Z,8.17
2019-03-06T02:07:47.345Z,8.30
2019-03-06T02:10:20.708Z,8.30
2019-03-06T02:12:56.000Z,9.57
2019-03-06T02:15:29.546Z,9.47
2019-03-06T02:18:02.971Z,9.03
2019-03-06T02:20:36.291Z,9.17
2019-03-06T02:23:10.694Z,9.13
2019-03-06T02:25:43.990Z,9.43
2019-03-06T02:28:19.190Z,8.43
2019-03-06T02:30:52.750Z,8.47
2019-03-06T02:33:26.646Z,8.77
2019-03-06T02:35:59.875Z,8.43
2019-03-06T02:38:33.029Z,8.57
2019-03-06T02:41:06.715Z,8.40
2019-03-06T02:43:41.853Z,8.13
2019-03-06T02:46:15.344Z,8.63
2019-03-06T02:48:48.594Z,8.97
2019-03-06T02:51:21.899Z,8.63
2019-03-06T02:53:55.439Z,8.93
2019-03-06T02:56:30.147Z,9.08
2019-03-06T02:59:03.571Z,9.07
2019-03-06T03:01:36.879Z,8.43
2019-03-06T03:04:11.307Z,8.12
2019-03-06T03:06:44.711Z,7.43
2019-03-06T03:15:25.126Z,7.37
2019-03-06T03:17:58.529Z,7.23
2019-03-06T03:20:32.054Z,7.60
2019-03-06T03:23:06.662Z,7.10
2019-03-06T03:25:40.001Z,7.93
2019-03-06T03:28:13.202Z,7.10
2019-03-06T03:30:46.644Z,7.57
2019-03-06T03:33:20.133Z,7.30
2019-03-06T03:35:53.486Z,7.42
2019-03-06T03:38:26.744Z,7.17
2019-03-06T03:41:00.191Z,7.27
2019-03-06T03:43:33.489Z,7.53
2019-03-06T03:46:06.923Z,7.10
2019-03-06T03:48:40.570Z,7.60
2019-03-06T03:51:13.955Z,7.60
2019-03-06T03:53:47.438Z,6.95
2019-03-06T03:56:20.863Z,6.80
2019-03-06T03:58:54.447Z,7.73
2019-03-06T04:01:27.879Z,8.20
2019-03-06T04:04:01.193Z,7.23
2019-03-06T04:06:34.595Z,7.57
2019-03-06T04:09:08.688Z,7.97
2019-03-06T04:11:43.039Z,8.60
2019-03-06T04:14:16.697Z,9.37
2019-03-06T04:16:50.054Z,8.50
2019-03-06T04:19:23.325Z,7.73
2019-03-06T04:21:56.617Z,7.60
2019-03-06T04:24:30.190Z,7.83
2019-03-06T04:27:03.515Z,7.83
2019-03-06T04:29:36.801Z,7.60
2019-03-06T04:32:12.968Z,8.83
2019-03-06T04:34:45.991Z,7.30
2019-03-06T04:37:19.288Z,6.53
2019-03-06T04:39:52.812Z,7.27
2019-03-06T04:42:25.979Z,7.47
2019-03-06T04:44:59.358Z,5.87
2019-03-06T04:47:35.684Z,6.37
2019-03-06T04:50:11.247Z,6.63
2019-03-06T04:52:44.925Z,5.53
2019-03-06T04:55:19.622Z,6.32
2019-03-06T04:57:53.663Z,6.55
2019-03-06T05:00:28.776Z,6.70
2019-03-06T05:03:14.611Z,7.57
2019-03-06T05:05:47.608Z,6.20
2019-03-06T05:08:21.444Z,6.20
2019-03-06T05:10:55.287Z,6.78
2019-03-06T05:13:32.137Z,7.20
2019-03-06T05:16:05.546Z,6.77
2019-03-06T05:18:40.485Z,6.43
2019-03-06T05:21:15.006Z,7.47
2019-03-06T05:23:48.332Z,6.80
2019-03-06T05:26:23.046Z,7.03
2019-03-06T05:28:56.571Z,7.25
2019-03-06T05:31:29.916Z,7.60
2019-03-06T05:34:03.614Z,6.77
2019-03-06T05:36:48.437Z,6.33
2019-03-06T05:39:21.655Z,6.27
2019-03-06T05:41:56.047Z,7.13
2019-03-06T05:44:29.391Z,6.40
2019-03-06T05:47:04.257Z,5.93
2019-03-06T05:49:37.621Z,6.23
2019-03-06T05:52:11.361Z,5.80
2019-03-06T05:54:44.642Z,5.73
2019-03-06T05:57:23.771Z,5.67
2019-03-06T05:59:58.070Z,5.57
2019-03-06T06:02:35.168Z,5.87
2019-03-06T06:05:11.245Z,5.93
2019-03-06T06:07:48.181Z,5.57
2019-03-06T06:10:38.530Z,5.80
2019-03-06T06:13:13.146Z,6.30
2019-03-06T06:16:03.653Z,5.80
2019-03-06T06:18:39.686Z,5.60
2019-03-06T06:21:12.993Z,5.70
2019-03-06T06:23:49.338Z,5.93
2019-03-06T06:26:25.747Z,5.47
2019-03-06T06:28:57.218Z,5.57
2019-03-06T06:31:30.559Z,5.87
2019-03-06T06:34:03.894Z,5.60
2019-03-06T06:36:39.012Z,5.93
2019-03-06T06:39:12.264Z,6.10
2019-03-06T06:41:48.657Z,6.00
2019-03-06T06:44:22.021Z,6.13
2019-03-06T06:46:55.238Z,6.40
2019-03-06T06:49:29.421Z,6.53
2019-03-06T06:52:11.258Z,6.30
2019-03-06T06:55:14.895Z,6.78
2019-03-06T06:58:16.186Z,6.77
2019-03-06T07:01:09.857Z,6.70
2019-03-06T07:04:03.162Z,6.47
2019-03-06T07:06:36.528Z,5.93
2019-03-06T07:09:10.482Z,6.77
2019-03-06T07:11:44.822Z,8.63
2019-03-06T07:14:18.029Z,6.50
2019-03-06T07:16:53.159Z,6.23
2019-03-06T07:19:25.867Z,6.28
2019-03-06T07:21:59.306Z,6.00
2019-03-06T07:24:33.050Z,6.00
2019-03-06T07:27:06.959Z,5.80
2019-03-06T07:29:40.165Z,6.47
2019-03-06T07:32:13.615Z,6.27
2019-03-06T07:35:22.186Z,7.40
2019-03-06T07:37:55.541Z,6.50
2019-03-06T07:40:30.181Z,6.20
2019-03-06T07:43:03.758Z,6.62
2019-03-06T07:45:37.454Z,7.47
2019-03-06T07:48:11.014Z,6.80
2019-03-06T07:50:45.215Z,7.17
2019-03-06T07:53:51.597Z,7.70
2019-03-06T07:56:25.353Z,8.10
2019-03-06T07:59:00.497Z,7.28
2019-03-06T08:01:41.482Z,8.07
2019-03-06T08:04:16.488Z,8.10
2019-03-06T08:06:49.925Z,8.50
2019-03-06T08:09:24.553Z,8.17
2019-03-06T08:11:58.029Z,8.47
2019-03-06T08:14:31.574Z,8.80
2019-03-06T08:17:06.484Z,8.53
2019-03-06T08:19:40.327Z,8.73
2019-03-06T08:22:14.615Z,8.00
2019-03-06T08:24:48.048Z,8.20
2019-03-06T08:27:21.381Z,8.83
2019-03-06T08:29:55.059Z,8.77
2019-03-06T08:32:30.050Z,8.40
2019-03-06T08:35:04.615Z,7.73
2019-03-06T08:37:38.457Z,7.80
2019-03-06T08:40:13.285Z,8.17
2019-03-06T08:42:48.922Z,8.70
2019-03-06T08:45:25.577Z,8.27
2019-03-06T08:47:57.101Z,8.40
2019-03-06T08:50:30.638Z,8.20
2019-03-06T08:53:04.318Z,7.37
2019-03-06T08:55:37.845Z,6.87
2019-03-06T08:58:11.376Z,6.50
2019-03-06T09:00:45.015Z,6.60
2019-03-06T09:03:18.700Z,6.30
2019-03-06T09:05:57.730Z,6.30
2019-03-06T09:08:32.143Z,6.20
2019-03-06T09:11:07.397Z,6.37
2019-03-06T09:13:42.692Z,6.40
2019-03-06T09:16:16.238Z,6.80
2019-03-06T09:18:49.700Z,5.92
2019-03-06T09:21:23.824Z,6.10
2019-03-06T09:23:59.555Z,6.63
2019-03-06T09:26:33.715Z,6.83
2019-03-06T09:29:11.273Z,6.00
2019-03-06T09:31:45.777Z,6.67
2019-03-06T09:34:20.657Z,6.17
2019-03-06T09:36:54.262Z,6.70
2019-03-06T09:39:27.493Z,6.43
2019-03-06T09:42:01.163Z,7.20
2019-03-06T09:44:34.587Z,7.13
2019-03-06T09:47:08.804Z,6.93
2019-03-06T09:49:42.347Z,7.33
2019-03-06T09:52:18.755Z,6.90
2019-03-06T09:54:54.964Z,6.92
2019-03-06T09:57:29.494Z,7.20
2019-03-06T10:00:03.016Z,7.07
2019-03-06T10:02:36.531Z,8.13
2019-03-06T10:05:11.214Z,7.90
2019-03-06T10:07:45.763Z,8.07
2019-03-06T10:10:19.664Z,8.85
2019-03-06T10:12:53.422Z,8.28
2019-03-06T10:15:31.799Z,8.37
2019-03-06T10:18:05.156Z,7.50
2019-03-06T10:20:38.732Z,9.30
2019-03-06T10:23:15.039Z,8.37
2019-03-06T10:25:50.633Z,9.03
2019-03-06T10:28:27.955Z,9.33
2019-03-06T10:31:02.889Z,11.93
2019-03-06T10:33:36.592Z,12.13
2019-03-06T10:36:10.416Z,14.23
2019-03-06T10:38:44.569Z,15.30
2019-03-06T10:41:19.896Z,15.63
2019-03-06T10:43:54.653Z,16.40
2019-03-06T10:46:28.200Z,15.97
2019-03-06T10:49:04.110Z,17.55
2019-03-06T10:51:37.649Z,17.43
2019-03-06T10:54:11.190Z,18.70
2019-03-06T10:56:44.917Z,18.57
2019-03-06T10:59:19.262Z,18.42
2019-03-06T11:01:53.324Z,17.77
2019-03-06T11:04:28.337Z,18.25
2019-03-06T11:07:03.462Z,18.60
2019-03-06T11:09:40.425Z,18.53
2019-03-06T11:12:17.548Z,19.30
2019-03-06T11:14:57.250Z,20.40
2019-03-06T11:17:32.632Z,21.17
2019-03-06T11:20:13.373Z,20.93
2019-03-06T11:22:48.995Z,21.40
2019-03-06T11:25:28.812Z,20.33
2019-03-06T11:28:04.296Z,22.10
2019-03-06T11:30:46.401Z,22.63
2019-03-06T11:33:22.441Z,21.67
2019-03-06T11:36:01.089Z,22.07
2019-03-06T11:38:36.372Z,21.95
2019-03-06T11:41:12.465Z,21.63
2019-03-06T11:43:52.773Z,21.68
2019-03-06T11:46:28.139Z,21.13
2019-03-06T11:49:03.445Z,21.27
2019-03-06T11:51:39.456Z,21.33
2019-03-06T11:54:19.754Z,21.57
2019-03-06T11:56:55.018Z,21.00
2019-03-06T11:59:31.694Z,20.53
2019-03-06T12:02:12.421Z,20.10
2019-03-06T12:04:47.654Z,19.67
2019-03-06T12:07:23.772Z,18.93
2019-03-06T12:10:04.253Z,18.60
2019-03-06T12:12:39.841Z,18.85
2019-03-06T12:15:16.849Z,17.50
2019-03-06T12:17:51.893Z,17.07
2019-03-06T12:20:29.332Z,17.20
2019-03-06T12:23:04.896Z,14.77
2019-03-06T12:25:42.618Z,15.87
2019-03-06T12:28:20.170Z,16.53
2019-03-06T12:30:55.325Z,15.97
2019-03-06T12:33:32.561Z,16.50
2019-03-06T12:36:07.707Z,15.23
2019-03-06T12:38:42.449Z,16.20
2019-03-06T12:41:17.458Z,16.10
2019-03-06T12:43:52.779Z,16.53
2019-03-06T12:46:27.923Z,15.40
2019-03-06T12:49:04.224Z,15.30
2019-03-06T12:51:40.035Z,16.20
2019-03-06T12:54:14.532Z,16.35
2019-03-06T12:56:48.417Z,15.90
2019-03-06T12:59:22.904Z,14.90
2019-03-06T13:02:13.249Z,15.10
2019-03-06T13:04:53.469Z,15.67
2019-03-06T13:07:36.306Z,15.07
2019-03-06T13:10:17.332Z,14.23
2019-03-06T13:12:51.971Z,15.17
2019-03-06T13:15:31.423Z,15.53
2019-03-06T13:18:05.496Z,14.38
2019-03-06T13:20:39.147Z,14.90
2019-03-06T13:23:14.152Z,15.30
2019-03-06T13:25:49.913Z,14.63
2019-03-06T13:28:26.215Z,15.57
2019-03-06T13:30:59.872Z,14.53
2019-03-06T13:33:34.686Z,14.30
2019-03-06T13:36:09.838Z,15.13
2019-03-06T13:38:44.880Z,14.87
2019-03-06T13:41:22.386Z,14.23
2019-03-06T13:43:57.148Z,14.17
2019-03-06T13:46:37.717Z,14.23
2019-03-06T13:49:12.346Z,13.40
2019-03-06T13:51:47.118Z,14.03
2019-03-06T13:54:23.738Z,14.70
2019-03-06T13:56:59.175Z,13.50
2019-03-06T13:59:41.087Z,14.63
2019-03-06T14:02:16.991Z,15.33
2019-03-06T14:04:52.232Z,14.47
2019-03-06T14:07:30.039Z,13.90
2019-03-06T14:16:04.120Z,15.30
2019-03-06T14:18:39.833Z,14.53
2019-03-06T14:21:14.076Z,15.60
2019-03-06T14:23:48.066Z,15.40
2019-03-06T14:26:22.531Z,15.43
2019-03-06T14:28:56.839Z,15.20
2019-03-06T14:31:37.253Z,15.93
2019-03-06T14:34:10.343Z,16.27
2019-03-06T14:36:46.482Z,16.30
2019-03-06T14:39:31.344Z,16.33
2019-03-06T14:42:05.604Z,16.27
2019-03-06T14:44:40.060Z,16.20
2019-03-06T14:47:16.634Z,16.57
2019-03-06T14:49:50.898Z,16.70
2019-03-06T14:52:29.523Z,17.13
2019-03-06T14:55:04.445Z,16.10
2019-03-06T14:57:38.789Z,16.83
2019-03-06T15:00:17.120Z,16.62
2019-03-06T15:02:50.911Z,16.83
2019-03-06T15:05:24.291Z,16.97
2019-03-06T15:07:58.287Z,18.03
2019-03-06T15:10:32.342Z,17.60
2019-03-06T15:13:06.994Z,18.10
2019-03-06T15:15:42.452Z,19.33
2019-03-06T15:18:16.464Z,20.47
2019-03-06T15:20:50.686Z,22.13
2019-03-06T15:23:26.305Z,22.13
2019-03-06T15:26:00.009Z,21.53
2019-03-06T15:28:33.954Z,22.33
2019-03-06T15:31:09.404Z,21.00
2019-03-06T15:33:42.132Z,22.10
2019-03-06T15:36:15.473Z,22.02
2019-03-06T15:38:49.916Z,24.20
2019-03-06T15:41:23.481Z,23.67
2019-03-06T15:43:56.860Z,22.53
2019-03-06T15:46:30.354Z,22.87
2019-03-06T15:49:03.633Z,23.13
2019-03-06T15:51:37.896Z,23.50
2019-03-06T15:54:12.345Z,23.75
2019-03-06T15:56:46.172Z,23.83
2019-03-06T15:59:19.798Z,22.45
2019-03-06T16:01:53.526Z,23.77
2019-03-06T16:04:27.337Z,23.77
2019-03-06T16:07:01.944Z,23.93
2019-03-06T16:09:37.455Z,22.73
2019-03-06T16:12:12.339Z,23.57
2019-03-06T16:14:47.071Z,23.07
2019-03-06T16:17:21.315Z,24.07
2019-03-06T16:19:54.831Z,23.00
2019-03-06T16:22:29.295Z,24.50
2019-03-06T16:25:03.053Z,23.20
2019-03-06T16:27:37.777Z,23.43
2019-03-06T16:30:24.740Z,24.60
2019-03-06T16:32:58.283Z,24.33
2019-03-06T16:35:31.855Z,24.13
2019-03-06T16:38:06.625Z,24.50
2019-03-06T16:40:41.279Z,24.93
2019-03-06T16:43:16.471Z,25.50
2019-03-06T16:45:51.282Z,25.37
2019-03-06T16:48:26.015Z,25.43
2019-03-06T16:51:00.614Z,25.02
2019-03-06T16:53:35.302Z,28.30
2019-03-06T16:56:10.203Z,25.92
2019-03-06T16:58:45.841Z,26.33
2019-03-06T17:01:20.043Z,27.87
2019-03-06T17:03:55.828Z,26.20
2019-03-06T17:06:30.030Z,24.93
2019-03-06T17:09:05.295Z,25.82
2019-03-06T17:11:41.637Z,26.80
2019-03-06T17:14:16.226Z,27.00
2019-03-06T17:16:50.180Z,27.20
2019-03-06T17:19:24.481Z,26.80
2019-03-06T17:21:58.859Z,26.83
2019-03-06T17:24:34.826Z,26.93
2019-03-06T17:27:09.259Z,27.90
2019-03-06T17:29:47.650Z,27.77
2019-03-06T17:32:22.615Z,26.83
2019-03-06T17:34:58.047Z,28.73
2019-03-06T17:37:32.233Z,25.87
2019-03-06T17:40:07.658Z,27.80
2019-03-06T17:42:42.512Z,26.80
2019-03-06T17:45:17.844Z,27.20
2019-03-06T17:47:52.596Z,27.90
2019-03-06T17:50:31.449Z,28.37
2019-03-06T17:53:05.898Z,26.40
2019-03-06T17:55:39.943Z,26.80
2019-03-06T17:58:13.887Z,25.50
2019-03-06T18:00:47.561Z,26.73
2019-03-06T18:03:21.067Z,26.07
2019-03-06T18:05:59.243Z,24.77
2019-03-06T18:08:32.986Z,24.40
2019-03-06T18:11:06.564Z,26.17
2019-03-06T18:13:40.892Z,25.20
2019-03-06T18:16:14.440Z,24.53
2019-03-06T18:18:47.730Z,25.17
2019-03-06T18:21:21.920Z,23.65
2019-03-06T18:23:55.429Z,23.30
2019-03-06T18:26:28.606Z,23.73
2019-03-06T18:29:02.109Z,23.27
2019-03-06T18:31:37.024Z,24.07
2019-03-06T18:34:13.024Z,23.10
2019-03-06T18:36:46.904Z,23.43
2019-03-06T18:39:22.634Z,22.13
2019-03-06T18:41:57.354Z,23.77
2019-03-06T18:44:33.282Z,23.15
2019-03-06T18:47:10.246Z,23.20
2019-03-06T18:49:42.926Z,22.37
2019-03-06T18:52:19.642Z,22.50
2019-03-06T18:54:56.471Z,23.15
2019-03-06T18:57:30.310Z,23.43
2019-03-06T19:00:06.145Z,22.83
2019-03-06T19:02:40.872Z,22.50
2019-03-06T19:05:15.088Z,22.60
2019-03-06T19:07:48.603Z,22.70
2019-03-06T19:10:23.741Z,23.37
2019-03-06T19:12:59.942Z,23.03
2019-03-06T19:15:34.824Z,23.17
2019-03-06T19:18:08.498Z,22.30
2019-03-06T19:20:41.835Z,24.40
2019-03-06T19:23:15.649Z,23.07
2019-03-06T19:25:49.059Z,22.83
2019-03-06T19:28:22.376Z,23.60
2019-03-06T19:30:56.068Z,24.63
2019-03-06T19:33:29.299Z,24.37
2019-03-06T19:36:02.820Z,24.60
2019-03-06T19:38:36.038Z,26.43
2019-03-06T19:41:09.560Z,25.87
2019-03-06T19:43:42.954Z,25.33
2019-03-06T19:46:16.585Z,25.27
2019-03-06T19:48:49.798Z,25.17
2019-03-06T19:51:23.142Z,25.70
2019-03-06T19:53:57.532Z,25.25
2019-03-06T19:56:30.902Z,24.73
2019-03-06T19:59:04.261Z,23.37
2019-03-06T20:01:38.034Z,24.87
2019-03-06T20:04:11.880Z,23.87
2019-03-06T20:06:45.740Z,23.22
2019-03-06T20:09:29.245Z,24.40
2019-03-06T20:12:03.154Z,23.20
2019-03-06T20:14:38.717Z,22.80
2019-03-06T20:17:12.628Z,23.47
2019-03-06T20:19:49.227Z,23.40
2019-03-06T20:22:23.988Z,24.47
2019-03-06T20:24:57.710Z,22.90
2019-03-06T20:27:31.553Z,21.97
2019-03-06T20:30:06.177Z,21.88
2019-03-06T20:32:39.821Z,22.03
2019-03-06T20:35:13.978Z,21.93
2019-03-06T20:37:47.979Z,21.60
2019-03-06T20:40:22.743Z,21.70
2019-03-06T20:42:56.954Z,21.73
2019-03-06T20:45:34.423Z,22.80
2019-03-06T20:48:06.796Z,20.78
2019-03-06T20:50:41.083Z,20.88
2019-03-06T20:53:17.390Z,20.48
2019-03-06T20:55:50.158Z,19.83
2019-03-06T20:58:25.460Z,20.80
2019-03-06T21:04:02.782Z,20.10
2019-03-06T21:06:36.535Z,20.87
2019-03-06T21:09:11.890Z,20.87
2019-03-06T21:11:45.640Z,20.53
2019-03-06T21:14:19.358Z,20.35
2019-03-06T21:16:54.882Z,21.13
2019-03-06T21:19:28.442Z,19.17
2019-03-06T21:22:23.203Z,19.03
2019-03-06T21:24:36.760Z,18.60
2019-03-06T21:27:11.474Z,19.40
2019-03-06T21:29:46.111Z,19.37
2019-03-06T21:32:19.805Z,19.60
2019-03-06T21:34:53.783Z,19.43
2019-03-06T21:37:27.600Z,18.20
2019-03-06T21:40:04.333Z,19.40
2019-03-06T21:42:38.032Z,19.07
2019-03-06T21:45:13.960Z,17.93
2019-03-06T21:47:48.942Z,19.53
2019-03-06T21:50:23.173Z,19.87
2019-03-06T21:52:56.848Z,17.60
2019-03-06T21:55:30.581Z,18.40
2019-03-06T21:58:04.427Z,19.53
2019-03-06T22:00:54.969Z,18.37
2019-03-06T22:03:27.661Z,18.87
2019-03-06T22:06:02.872Z,17.50
2019-03-06T22:08:36.535Z,18.30
2019-03-06T22:11:10.247Z,17.90
2019-03-06T22:13:43.964Z,18.33
2019-03-06T22:16:46.316Z,18.80
2019-03-06T22:18:58.207Z,18.27
2019-03-06T22:21:33.359Z,18.30
2019-03-06T22:24:08.096Z,18.60
2019-03-06T22:26:41.844Z,18.90
2019-03-06T22:29:15.465Z,18.67
2019-03-06T22:31:50.024Z,18.53
2019-03-06T22:34:23.740Z,19.30
2019-03-06T22:37:00.065Z,19.70
2019-03-06T22:39:33.893Z,18.33
2019-03-06T22:42:07.662Z,18.70
2019-03-06T22:44:41.317Z,18.27
2019-03-06T22:47:15.390Z,18.80
2019-03-06T22:49:49.477Z,18.50
2019-03-06T22:52:32.243Z,19.80
2019-03-06T22:55:12.359Z,18.43
2019-03-06T22:57:43.726Z,18.87
2019-03-06T23:00:36.447Z,18.33
2019-03-06T23:03:10.766Z,18.73
2019-03-06T23:05:44.531Z,19.33
2019-03-06T23:08:18.385Z,18.93
2019-03-06T23:10:52.784Z,19.13
2019-03-06T23:13:27.467Z,21.47
2019-03-06T23:16:03.449Z,21.90
2019-03-06T23:18:37.327Z,22.30
2019-03-06T23:21:11.040Z,24.77
2019-03-06T23:23:45.165Z,24.53
2019-03-06T23:26:18.903Z,21.83
2019-03-06T23:28:52.730Z,25.00
2019-03-06T23:31:27.088Z,25.15
2019-03-06T23:34:01.438Z,25.65
2019-03-06T23:36:37.416Z,25.97
2019-03-06T23:39:13.670Z,25.67
2019-03-06T23:41:47.579Z,26.40
2019-03-06T23:44:21.616Z,25.67
2019-03-06T23:46:57.681Z,27.13
2019-03-06T23:49:31.659Z,24.83
2019-03-06T23:52:05.498Z,23.57
2019-03-06T23:54:51.830Z,24.07
2019-03-06T23:57:25.700Z,25.33
2019-03-06T23:59:59.551Z,25.82
